createdAt,value
2019-03-22T00:01:07.164Z,0.00
2019-03-22T00:02:38.978Z,0.00
2019-03-22T00:04:10.887Z,0.00
2019-03-22T00:05:42.601Z,0.00
2019-03-22T00:07:14.410Z,0.00
2019-03-22T00:08:46.222Z,0.00
2019-03-22T00:10:18.036Z,0.00
2019-03-22T00:11:49.849Z,0.00
2019-03-22T00:13:21.673Z,0.00
2019-03-22T00:14:53.532Z,0.00
2019-03-22T00:16:25.280Z,0.00
2019-03-22T00:17:57.092Z,0.00
2019-03-22T00:19:28.906Z,0.00
2019-03-22T00:21:00.721Z,0.00
2019-03-22T00:22:32.821Z,0.00
2019-03-22T00:24:04.340Z,0.00
2019-03-22T00:25:36.148Z,0.00
2019-03-22T00:27:16.267Z,0.00
2019-03-22T00:28:40.175Z,0.00
2019-03-22T00:30:11.705Z,0.00
2019-03-22T00:31:43.704Z,0.00
2019-03-22T00:33:15.210Z,0.00
2019-03-22T00:34:47.025Z,0.00
2019-03-22T00:36:18.833Z,0.00
2019-03-22T00:37:50.664Z,0.00
2019-03-22T00:39:22.458Z,0.00
2019-03-22T00:40:54.369Z,0.00
2019-03-22T00:42:26.138Z,0.00
2019-03-22T00:43:57.892Z,0.00
2019-03-22T00:45:29.705Z,0.00
2019-03-22T00:47:01.764Z,0.00
2019-03-22T00:48:33.489Z,0.00
2019-03-22T00:50:05.367Z,0.00
2019-03-22T00:51:37.281Z,0.00
2019-03-22T00:53:08.797Z,0.00
2019-03-22T00:54:40.575Z,0.00
2019-03-22T00:56:12.685Z,0.00
2019-03-22T00:57:44.302Z,0.00
2019-03-22T00:59:16.175Z,0.00
2019-03-22T01:00:47.850Z,0.00
2019-03-22T01:02:19.867Z,0.00
2019-03-22T01:03:51.664Z,0.00
2019-03-22T01:05:23.267Z,0.00
2019-03-22T01:06:55.657Z,0.00
2019-03-22T01:08:27.841Z,0.00
2019-03-22T01:09:59.076Z,0.00
2019-03-22T01:11:30.507Z,0.00
2019-03-22T01:13:02.483Z,0.00
2019-03-22T01:14:34.132Z,0.00
2019-03-22T01:16:05.966Z,0.00
2019-03-22T01:17:38.025Z,0.00
2019-03-22T01:19:09.591Z,0.00
2019-03-22T01:20:41.385Z,0.00
2019-03-22T01:22:13.189Z,0.00
2019-03-22T01:23:45.002Z,0.00
2019-03-22T01:25:16.912Z,0.00
2019-03-22T01:26:48.624Z,0.00
2019-03-22T01:28:20.437Z,0.00
2019-03-22T01:29:52.249Z,0.00
2019-03-22T01:31:24.060Z,0.00
2019-03-22T01:32:55.872Z,0.00
2019-03-22T01:34:27.685Z,0.00
2019-03-22T01:35:59.598Z,0.00
2019-03-22T01:37:31.309Z,0.00
2019-03-22T01:39:03.120Z,0.00
2019-03-22T01:40:34.932Z,0.00
2019-03-22T01:42:06.744Z,0.00
2019-03-22T01:43:38.570Z,0.00
2019-03-22T01:45:10.369Z,0.00
2019-03-22T01:46:42.179Z,0.00
2019-03-22T01:48:13.993Z,0.00
2019-03-22T01:49:45.815Z,0.00
2019-03-22T01:51:17.674Z,0.00
2019-03-22T01:52:49.430Z,0.00
2019-03-22T01:54:21.343Z,0.00
2019-03-22T01:55:53.055Z,0.00
2019-03-22T01:57:24.867Z,0.00
2019-03-22T01:58:56.675Z,0.00
2019-03-22T02:00:28.487Z,0.00
2019-03-22T02:02:00.309Z,0.00
2019-03-22T02:03:32.137Z,0.00
2019-03-22T02:05:03.925Z,0.00
2019-03-22T02:06:35.736Z,0.00
2019-03-22T02:08:07.558Z,0.00
2019-03-22T02:09:39.378Z,0.00
2019-03-22T02:11:11.172Z,0.00
2019-03-22T02:12:43.117Z,0.00
2019-03-22T02:14:14.794Z,0.00
2019-03-22T02:15:46.606Z,0.00
2019-03-22T02:17:18.425Z,0.00
2019-03-22T02:18:50.231Z,0.00
2019-03-22T02:20:22.046Z,0.00
2019-03-22T02:21:53.852Z,0.00
2019-03-22T02:23:25.666Z,0.00
2019-03-22T02:24:57.477Z,0.00
2019-03-22T02:26:29.302Z,0.00
2019-03-22T02:28:04.351Z,0.00
2019-03-22T02:29:32.914Z,0.00
2019-03-22T02:31:04.824Z,0.00
2019-03-22T02:32:36.539Z,0.00
2019-03-22T02:34:08.348Z,0.00
2019-03-22T02:35:40.190Z,0.00
2019-03-22T02:37:11.971Z,0.00
2019-03-22T02:38:43.783Z,0.00
2019-03-22T02:40:15.600Z,0.00
2019-03-22T02:41:47.458Z,0.00
2019-03-22T02:43:19.227Z,0.00
2019-03-22T02:44:51.037Z,0.00
2019-03-22T02:46:22.846Z,0.00
2019-03-22T02:47:54.653Z,0.00
2019-03-22T02:49:26.965Z,0.00
2019-03-22T02:50:58.276Z,0.00
2019-03-22T02:52:30.093Z,0.00
2019-03-22T02:54:01.902Z,0.00
2019-03-22T02:55:33.714Z,0.00
2019-03-22T02:57:05.531Z,0.00
2019-03-22T02:58:37.335Z,0.00
2019-03-22T03:00:09.184Z,0.00
2019-03-22T03:01:40.959Z,0.00
2019-03-22T03:03:12.779Z,0.00
2019-03-22T03:04:44.581Z,0.00
2019-03-22T03:06:16.399Z,0.00
2019-03-22T03:07:48.307Z,0.00
2019-03-22T03:09:20.036Z,0.00
2019-03-22T03:10:51.898Z,0.00
2019-03-22T03:12:24.681Z,0.00
2019-03-22T03:13:55.470Z,0.00
2019-03-22T03:15:27.261Z,0.00
2019-03-22T03:16:59.081Z,0.00
2019-03-22T03:18:30.887Z,0.00
2019-03-22T03:20:02.699Z,0.00
2019-03-22T03:21:34.509Z,0.00
2019-03-22T03:23:06.322Z,0.00
2019-03-22T03:24:38.132Z,0.00
2019-03-22T03:26:10.044Z,0.00
2019-03-22T03:27:41.755Z,0.00
2019-03-22T03:29:13.567Z,0.00
2019-03-22T03:30:45.382Z,0.00
2019-03-22T03:32:17.195Z,0.00
2019-03-22T03:33:49.010Z,0.00
2019-03-22T03:35:20.864Z,0.00
2019-03-22T03:36:52.625Z,0.00
2019-03-22T03:38:24.441Z,0.00
2019-03-22T03:39:56.246Z,0.00
2019-03-22T03:41:28.057Z,0.00
2019-03-22T03:42:59.870Z,0.00
2019-03-22T03:44:31.780Z,0.00
2019-03-22T03:46:03.510Z,0.00
2019-03-22T03:47:35.313Z,0.00
2019-03-22T03:49:07.115Z,0.00
2019-03-22T03:50:38.947Z,0.00
2019-03-22T03:52:10.737Z,0.00
2019-03-22T03:53:42.554Z,0.00
2019-03-22T03:55:14.435Z,0.00
2019-03-22T03:56:46.180Z,0.00
2019-03-22T03:58:17.988Z,0.00
2019-03-22T03:59:49.797Z,0.00
2019-03-22T04:01:21.604Z,0.00
2019-03-22T04:02:53.555Z,0.00
2019-03-22T04:04:25.231Z,0.00
2019-03-22T04:05:57.038Z,0.00
2019-03-22T04:07:28.855Z,0.00
2019-03-22T04:09:00.661Z,0.00
2019-03-22T04:10:32.493Z,0.00
2019-03-22T04:12:04.302Z,0.00
2019-03-22T04:13:36.102Z,0.00
2019-03-22T04:15:07.907Z,0.00
2019-03-22T04:16:39.718Z,0.00
2019-03-22T04:18:11.530Z,0.00
2019-03-22T04:19:43.341Z,0.00
2019-03-22T04:21:15.262Z,0.00
2019-03-22T04:22:46.967Z,0.00
2019-03-22T04:24:18.806Z,0.00
2019-03-22T04:25:50.588Z,0.00
2019-03-22T04:27:22.443Z,0.00
2019-03-22T04:29:06.861Z,0.00
2019-03-22T04:30:26.025Z,0.00
2019-03-22T04:31:57.834Z,0.00
2019-03-22T04:33:29.645Z,0.00
2019-03-22T04:35:01.475Z,0.00
2019-03-22T04:36:33.269Z,0.00
2019-03-22T04:38:05.082Z,0.00
2019-03-22T04:39:36.995Z,0.00
2019-03-22T04:41:08.734Z,0.00
2019-03-22T04:42:40.515Z,0.00
2019-03-22T04:44:12.341Z,0.00
2019-03-22T04:45:44.137Z,0.00
2019-03-22T04:47:15.954Z,0.00
2019-03-22T04:48:47.760Z,0.00
2019-03-22T04:50:19.575Z,0.00
2019-03-22T04:51:51.385Z,0.00
2019-03-22T04:53:23.195Z,0.00
2019-03-22T04:54:55.006Z,0.00
2019-03-22T04:56:26.819Z,0.00
2019-03-22T04:57:58.836Z,0.00
2019-03-22T04:59:30.446Z,0.00
2019-03-22T05:01:02.285Z,0.00
2019-03-22T05:02:34.068Z,0.00
2019-03-22T05:04:05.875Z,0.00
2019-03-22T05:05:37.688Z,0.00
2019-03-22T05:07:09.499Z,0.00
2019-03-22T05:08:41.312Z,0.00
2019-03-22T05:10:13.122Z,0.00
2019-03-22T05:11:44.938Z,0.00
2019-03-22T05:13:16.743Z,0.00
2019-03-22T05:14:48.561Z,0.00
2019-03-22T05:16:20.467Z,0.00
2019-03-22T05:17:52.179Z,0.00
2019-03-22T05:19:23.992Z,0.00
2019-03-22T05:20:55.802Z,0.00
2019-03-22T05:22:27.615Z,0.00
2019-03-22T05:23:59.425Z,0.00
2019-03-22T05:25:31.235Z,0.00
2019-03-22T05:27:03.049Z,0.00
2019-03-22T05:28:34.859Z,0.00
2019-03-22T05:30:06.671Z,0.00
2019-03-22T05:31:38.482Z,0.00
2019-03-22T05:33:10.293Z,0.00
2019-03-22T05:34:42.255Z,0.00
2019-03-22T05:36:13.916Z,0.00
2019-03-22T05:37:45.727Z,0.00
2019-03-22T05:39:17.539Z,0.00
2019-03-22T05:40:49.351Z,0.00
2019-03-22T05:42:21.169Z,0.00
2019-03-22T05:43:52.975Z,0.00
2019-03-22T05:45:24.791Z,0.00
2019-03-22T05:46:56.595Z,0.00
2019-03-22T05:48:28.431Z,0.00
2019-03-22T05:50:00.419Z,0.00
2019-03-22T05:51:32.032Z,0.00
2019-03-22T05:53:03.955Z,0.00
2019-03-22T05:54:35.653Z,0.00
2019-03-22T05:56:07.473Z,0.00
2019-03-22T05:57:39.275Z,0.00
2019-03-22T05:59:11.087Z,0.00
2019-03-22T06:00:42.898Z,0.00
2019-03-22T06:02:14.709Z,0.00
2019-03-22T06:03:46.521Z,0.00
2019-03-22T06:05:18.335Z,0.00
2019-03-22T06:06:50.142Z,0.00
2019-03-22T06:08:21.981Z,0.00
2019-03-22T06:09:53.772Z,0.00
2019-03-22T06:11:25.677Z,0.00
2019-03-22T06:12:57.389Z,0.00
2019-03-22T06:14:29.199Z,0.00
2019-03-22T06:16:01.012Z,0.00
2019-03-22T06:17:32.830Z,0.00
2019-03-22T06:19:04.640Z,0.00
2019-03-22T06:20:36.443Z,0.00
2019-03-22T06:22:08.254Z,0.00
2019-03-22T06:23:40.067Z,0.00
2019-03-22T06:25:12.507Z,0.00
2019-03-22T06:26:43.690Z,0.00
2019-03-22T06:28:15.512Z,0.00
2019-03-22T06:29:54.055Z,0.00
2019-03-22T06:31:20.750Z,0.00
2019-03-22T06:32:50.938Z,0.00
2019-03-22T06:34:22.745Z,0.00
2019-03-22T06:35:54.558Z,0.00
2019-03-22T06:37:26.367Z,0.00
2019-03-22T06:38:58.179Z,0.00
2019-03-22T06:40:29.989Z,0.00
2019-03-22T06:42:03.008Z,0.00
2019-03-22T06:43:33.612Z,0.00
2019-03-22T06:45:05.423Z,0.00
2019-03-22T06:46:37.235Z,0.00
2019-03-22T06:48:09.159Z,0.00
2019-03-22T06:49:40.857Z,0.00
2019-03-22T06:51:12.682Z,0.00
2019-03-22T06:52:44.480Z,0.00
2019-03-22T06:54:16.393Z,0.00
2019-03-22T06:55:48.106Z,0.00
2019-03-22T06:57:19.915Z,0.00
2019-03-22T06:58:51.750Z,0.00
2019-03-22T07:00:23.538Z,0.00
2019-03-22T07:01:55.352Z,0.00
2019-03-22T07:03:27.163Z,0.00
2019-03-22T07:04:58.974Z,0.00
2019-03-22T07:06:30.886Z,0.00
2019-03-22T07:08:02.596Z,0.00
2019-03-22T07:09:34.407Z,0.00
2019-03-22T07:11:06.224Z,0.00
2019-03-22T07:12:38.030Z,0.00
2019-03-22T07:14:09.906Z,0.00
2019-03-22T07:15:41.683Z,0.00
2019-03-22T07:17:13.537Z,0.00
2019-03-22T07:18:45.276Z,0.00
2019-03-22T07:20:17.090Z,0.00
2019-03-22T07:21:48.899Z,0.00
2019-03-22T07:23:20.711Z,0.00
2019-03-22T07:24:52.624Z,0.00
2019-03-22T07:26:24.335Z,0.00
2019-03-22T07:27:56.147Z,0.00
2019-03-22T07:29:27.958Z,0.00
2019-03-22T07:30:59.771Z,0.00
2019-03-22T07:32:31.581Z,0.00
2019-03-22T07:34:03.393Z,0.00
2019-03-22T07:35:35.208Z,0.00
2019-03-22T07:37:07.017Z,0.00
2019-03-22T07:38:38.831Z,0.00
2019-03-22T07:40:10.640Z,0.00
2019-03-22T07:41:42.452Z,0.00
2019-03-22T07:43:14.363Z,0.00
2019-03-22T07:44:46.075Z,0.00
2019-03-22T07:46:17.886Z,0.00
2019-03-22T07:47:49.701Z,0.00
2019-03-22T07:49:21.540Z,0.00
2019-03-22T07:50:53.334Z,0.00
2019-03-22T07:52:25.134Z,0.00
2019-03-22T07:53:56.945Z,0.00
2019-03-22T07:55:28.867Z,0.00
2019-03-22T07:57:00.568Z,0.00
2019-03-22T07:58:32.388Z,0.00
2019-03-22T08:00:04.192Z,0.00
2019-03-22T08:01:36.158Z,0.00
2019-03-22T08:03:07.816Z,0.00
2019-03-22T08:04:39.627Z,0.00
2019-03-22T08:06:11.454Z,0.00
2019-03-22T08:07:43.250Z,0.00
2019-03-22T08:09:15.063Z,0.00
2019-03-22T08:10:46.874Z,0.00
2019-03-22T08:12:19.581Z,0.00
2019-03-22T08:13:50.499Z,0.00
2019-03-22T08:15:22.311Z,0.00
2019-03-22T08:16:54.135Z,0.00
2019-03-22T08:18:25.938Z,0.00
2019-03-22T08:19:57.845Z,0.00
2019-03-22T08:21:29.557Z,0.00
2019-03-22T08:23:01.393Z,0.00
2019-03-22T08:24:33.199Z,0.00
2019-03-22T08:26:05.011Z,0.00
2019-03-22T08:27:36.806Z,0.00
2019-03-22T08:29:08.614Z,0.00
2019-03-22T08:30:43.345Z,0.00
2019-03-22T08:32:12.239Z,0.00
2019-03-22T08:33:44.057Z,0.00
2019-03-22T08:35:15.866Z,0.00
2019-03-22T08:36:47.673Z,0.00
2019-03-22T08:38:19.642Z,0.00
2019-03-22T08:39:51.321Z,0.00
2019-03-22T08:41:24.057Z,0.00
2019-03-22T08:42:54.931Z,0.00
2019-03-22T08:44:26.736Z,0.00
2019-03-22T08:45:58.557Z,0.00
2019-03-22T08:47:34.201Z,0.00
2019-03-22T08:49:02.232Z,0.00
2019-03-22T08:50:33.994Z,0.00
2019-03-22T08:52:05.791Z,0.00
2019-03-22T08:53:37.645Z,0.00
2019-03-22T08:55:09.422Z,0.00
2019-03-22T08:56:41.496Z,0.00
2019-03-22T08:58:13.038Z,0.00
2019-03-22T08:59:44.849Z,0.00
2019-03-22T09:01:16.687Z,0.00
2019-03-22T09:02:49.724Z,0.00
2019-03-22T09:04:20.290Z,0.00
2019-03-22T09:05:52.096Z,5.63
2019-03-22T09:07:24.580Z,5.63
2019-03-22T09:08:55.719Z,5.63
2019-03-22T09:10:27.565Z,11.25
2019-03-22T09:11:59.378Z,16.88
2019-03-22T09:13:31.154Z,16.88
2019-03-22T09:15:03.085Z,22.50
2019-03-22T09:16:34.886Z,28.13
2019-03-22T09:18:06.637Z,33.75
2019-03-22T09:19:38.402Z,33.75
2019-03-22T09:21:10.229Z,33.75
2019-03-22T09:22:42.026Z,33.75
2019-03-22T09:24:13.836Z,39.38
2019-03-22T09:25:45.648Z,45.00
2019-03-22T09:27:17.466Z,45.00
2019-03-22T09:28:49.313Z,50.63
2019-03-22T09:30:21.093Z,61.88
2019-03-22T09:31:53.810Z,67.50
2019-03-22T09:33:24.808Z,61.88
2019-03-22T09:34:56.521Z,61.88
2019-03-22T09:36:28.336Z,56.25
2019-03-22T09:38:12.326Z,73.13
2019-03-22T09:39:31.956Z,84.38
2019-03-22T09:41:03.800Z,95.63
2019-03-22T09:42:35.625Z,106.88
2019-03-22T09:44:07.399Z,106.88
2019-03-22T09:45:39.203Z,123.75
2019-03-22T09:47:11.016Z,123.75
2019-03-22T09:48:42.828Z,118.13
2019-03-22T09:50:14.654Z,123.75
2019-03-22T09:51:46.554Z,123.75
2019-03-22T09:53:18.265Z,129.38
2019-03-22T09:54:50.079Z,129.38
2019-03-22T09:56:21.940Z,135.00
2019-03-22T09:57:53.721Z,135.00
2019-03-22T09:59:25.553Z,151.88
2019-03-22T10:00:57.389Z,157.50
2019-03-22T10:02:29.142Z,180.00
2019-03-22T10:04:01.088Z,191.25
2019-03-22T10:05:32.827Z,202.50
2019-03-22T10:07:04.603Z,208.13
2019-03-22T10:08:36.459Z,213.75
2019-03-22T10:10:08.468Z,219.38
2019-03-22T10:11:40.070Z,236.25
2019-03-22T10:13:11.877Z,241.88
2019-03-22T10:14:43.643Z,258.75
2019-03-22T10:16:15.566Z,286.88
2019-03-22T10:17:47.301Z,303.75
2019-03-22T10:19:19.159Z,320.63
2019-03-22T10:20:50.905Z,331.88
2019-03-22T10:22:22.725Z,354.38
2019-03-22T10:23:54.519Z,331.88
2019-03-22T10:25:26.335Z,315.00
2019-03-22T10:26:59.295Z,337.50
2019-03-22T10:28:30.206Z,315.00
2019-03-22T10:30:01.835Z,292.50
2019-03-22T10:31:37.313Z,281.25
2019-03-22T10:33:05.485Z,292.50
2019-03-22T10:34:39.633Z,303.75
2019-03-22T10:36:09.030Z,309.38
2019-03-22T10:37:40.987Z,331.88
2019-03-22T10:39:12.656Z,337.50
2019-03-22T10:40:44.621Z,354.38
2019-03-22T10:42:16.311Z,354.38
2019-03-22T10:43:48.166Z,399.38
2019-03-22T10:45:19.911Z,410.63
2019-03-22T10:46:51.908Z,393.75
2019-03-22T10:48:23.603Z,399.38
2019-03-22T10:49:55.387Z,365.63
2019-03-22T10:51:27.321Z,348.75
2019-03-22T10:52:58.987Z,444.38
2019-03-22T10:54:31.079Z,523.13
2019-03-22T10:56:02.616Z,579.38
2019-03-22T10:57:34.425Z,489.38
2019-03-22T10:59:06.358Z,461.25
2019-03-22T11:00:38.055Z,450.00
2019-03-22T11:02:09.871Z,438.75
2019-03-22T11:03:41.818Z,371.25
2019-03-22T11:05:13.714Z,382.50
2019-03-22T11:06:45.315Z,371.25
2019-03-22T11:08:17.197Z,388.13
2019-03-22T11:09:48.949Z,309.38
2019-03-22T11:11:20.760Z,365.63
2019-03-22T11:12:52.676Z,405.00
2019-03-22T11:14:24.502Z,573.75
2019-03-22T11:15:56.283Z,500.63
2019-03-22T11:17:28.018Z,421.88
2019-03-22T11:19:00.134Z,472.50
2019-03-22T11:20:31.647Z,556.88
2019-03-22T11:22:03.463Z,658.13
2019-03-22T11:23:35.378Z,680.63
2019-03-22T11:25:07.103Z,573.75
2019-03-22T11:26:38.973Z,613.13
2019-03-22T11:28:12.040Z,652.50
2019-03-22T11:29:42.540Z,720.00
2019-03-22T11:31:14.356Z,759.38
2019-03-22T11:32:46.178Z,708.75
2019-03-22T11:34:17.989Z,720.00
2019-03-22T11:35:49.808Z,742.50
2019-03-22T11:37:21.746Z,691.88
2019-03-22T11:38:53.437Z,736.88
2019-03-22T11:40:25.255Z,663.75
2019-03-22T11:41:57.171Z,680.63
2019-03-22T11:43:28.886Z,613.13
2019-03-22T11:45:00.704Z,568.13
2019-03-22T11:46:32.716Z,573.75
2019-03-22T11:48:04.548Z,596.25
2019-03-22T11:49:36.156Z,686.25
2019-03-22T11:51:08.087Z,900.00
2019-03-22T11:52:39.786Z,832.50
2019-03-22T11:54:11.869Z,697.50
2019-03-22T11:55:43.548Z,742.50
2019-03-22T11:57:15.235Z,798.75
2019-03-22T11:58:47.053Z,838.13
2019-03-22T12:00:18.977Z,849.38
2019-03-22T12:01:50.689Z,821.25
2019-03-22T12:03:22.503Z,787.50
2019-03-22T12:04:54.380Z,742.50
2019-03-22T12:06:27.361Z,753.75
2019-03-22T12:07:57.954Z,821.25
2019-03-22T12:09:29.776Z,905.63
2019-03-22T12:11:01.590Z,961.88
2019-03-22T12:12:33.507Z,1068.75
2019-03-22T12:14:05.255Z,1125.00
2019-03-22T12:15:37.042Z,1136.25
2019-03-22T12:17:08.862Z,1051.88
2019-03-22T12:18:40.780Z,984.38
2019-03-22T12:20:12.499Z,1029.38
2019-03-22T12:21:44.323Z,900.00
2019-03-22T12:23:16.384Z,939.38
2019-03-22T12:24:48.171Z,871.88
2019-03-22T12:26:19.772Z,905.63
2019-03-22T12:27:51.591Z,804.38
2019-03-22T12:29:23.409Z,765.00
2019-03-22T12:30:55.231Z,866.25
2019-03-22T12:32:32.120Z,978.75
2019-03-22T12:33:58.870Z,787.50
2019-03-22T12:35:30.698Z,714.38
2019-03-22T12:37:02.600Z,753.75
2019-03-22T12:38:34.318Z,697.50
2019-03-22T12:40:06.137Z,770.63
2019-03-22T12:41:37.953Z,967.50
2019-03-22T12:43:09.769Z,1096.88
2019-03-22T12:44:41.589Z,967.50
2019-03-22T12:46:13.410Z,770.63
2019-03-22T12:47:45.224Z,810.00
2019-03-22T12:49:17.042Z,776.25
2019-03-22T12:50:48.861Z,787.50
2019-03-22T12:52:20.921Z,933.75
2019-03-22T12:53:52.497Z,843.75
2019-03-22T12:55:24.415Z,978.75
2019-03-22T12:56:56.131Z,911.25
2019-03-22T12:58:28.254Z,815.63
2019-03-22T12:59:59.767Z,770.63
2019-03-22T13:01:31.586Z,905.63
2019-03-22T13:03:03.406Z,1192.50
2019-03-22T13:04:35.219Z,1344.38
2019-03-22T13:06:07.036Z,1355.63
2019-03-22T13:07:38.855Z,1243.13
2019-03-22T13:09:10.674Z,1057.50
2019-03-22T13:10:42.494Z,961.88
2019-03-22T13:13:46.434Z,978.75
2019-03-22T13:15:17.946Z,945.00
2019-03-22T13:16:49.764Z,877.50
2019-03-22T13:18:21.582Z,720.00
2019-03-22T13:19:53.402Z,708.75
2019-03-22T13:21:25.296Z,804.38
2019-03-22T13:22:57.040Z,967.50
2019-03-22T13:24:28.907Z,1299.38
2019-03-22T13:26:00.676Z,1276.88
2019-03-22T13:27:32.493Z,1299.38
2019-03-22T13:29:04.325Z,1350.00
2019-03-22T13:32:08.168Z,1310.63
2019-03-22T13:33:39.972Z,1029.38
2019-03-22T13:35:11.594Z,911.25
2019-03-22T13:36:43.415Z,1074.38
2019-03-22T13:38:15.225Z,1158.75
2019-03-22T13:39:47.053Z,911.25
2019-03-22T13:41:18.894Z,1147.50
2019-03-22T13:42:50.691Z,1389.38
2019-03-22T13:44:22.505Z,1254.38
2019-03-22T13:48:57.958Z,877.50
2019-03-22T13:50:29.929Z,1181.25
2019-03-22T13:52:01.596Z,1333.13
2019-03-22T13:53:33.425Z,1209.38
2019-03-22T13:55:05.235Z,1119.38
2019-03-22T13:56:37.066Z,866.25
2019-03-22T13:58:08.874Z,793.13
2019-03-22T13:59:41.310Z,731.25
2019-03-22T14:01:12.515Z,680.63
2019-03-22T14:02:44.453Z,511.88
2019-03-22T14:04:16.154Z,506.25
2019-03-22T14:05:47.970Z,478.13
2019-03-22T14:07:20.366Z,506.25
2019-03-22T14:08:52.010Z,478.13
2019-03-22T14:10:23.428Z,500.63
2019-03-22T14:11:55.244Z,495.00
2019-03-22T14:13:27.058Z,416.25
2019-03-22T14:14:58.896Z,528.75
2019-03-22T14:16:30.771Z,613.13
2019-03-22T14:18:02.513Z,697.50
2019-03-22T14:21:06.143Z,798.75
2019-03-22T14:22:37.964Z,793.13
2019-03-22T14:24:09.777Z,781.88
2019-03-22T14:25:41.596Z,888.75
2019-03-22T14:27:13.511Z,990.00
2019-03-22T14:28:45.229Z,995.63
2019-03-22T14:30:17.045Z,945.00
2019-03-22T14:31:48.867Z,871.88
2019-03-22T14:33:20.682Z,753.75
2019-03-22T14:34:52.705Z,770.63
2019-03-22T14:36:24.316Z,770.63
2019-03-22T14:37:56.344Z,1074.38
2019-03-22T14:39:27.949Z,894.38
2019-03-22T14:41:00.292Z,748.13
2019-03-22T14:42:31.628Z,680.63
2019-03-22T14:44:03.401Z,714.38
2019-03-22T14:45:35.321Z,883.13
2019-03-22T14:47:07.047Z,1361.25
2019-03-22T14:48:38.982Z,1372.50
2019-03-22T14:50:10.677Z,1501.88
2019-03-22T14:51:42.490Z,1428.75
2019-03-22T14:53:14.335Z,1586.25
2019-03-22T14:54:46.126Z,1653.75
2019-03-22T14:57:52.266Z,945.00
2019-03-22T14:59:21.585Z,753.75
2019-03-22T15:00:53.405Z,669.38
2019-03-22T15:02:25.225Z,669.38
2019-03-22T15:03:57.143Z,680.63
2019-03-22T15:05:29.167Z,630.00
2019-03-22T15:07:00.681Z,714.38
2019-03-22T15:08:32.550Z,826.88
2019-03-22T15:10:04.339Z,765.00
2019-03-22T15:11:36.143Z,888.75
2019-03-22T15:14:39.772Z,995.63
2019-03-22T15:16:11.895Z,1113.75
2019-03-22T15:17:43.408Z,1321.88
2019-03-22T15:19:15.226Z,1141.88
2019-03-22T15:20:47.047Z,967.50
2019-03-22T15:22:18.963Z,708.75
2019-03-22T15:23:50.683Z,646.88
2019-03-22T15:25:22.502Z,641.25
2019-03-22T15:26:54.319Z,905.63
2019-03-22T15:29:58.159Z,1153.13
2019-03-22T15:31:29.777Z,815.63
2019-03-22T15:33:01.594Z,686.25
2019-03-22T15:34:33.412Z,928.13
2019-03-22T15:36:05.323Z,1378.13
2019-03-22T15:37:37.053Z,1822.50
2019-03-22T15:39:09.308Z,1890.00
2019-03-22T15:40:40.696Z,1468.13
2019-03-22T15:42:12.614Z,1096.88
2019-03-22T15:43:44.331Z,961.88
2019-03-22T15:46:47.970Z,635.63
2019-03-22T15:48:20.122Z,720.00
2019-03-22T15:49:51.610Z,877.50
2019-03-22T15:51:23.433Z,1074.38
2019-03-22T15:52:55.297Z,990.00
2019-03-22T15:54:27.191Z,905.63
2019-03-22T15:55:58.888Z,815.63
2019-03-22T15:57:30.708Z,658.13
2019-03-22T15:59:02.538Z,624.38
2019-03-22T16:00:34.655Z,562.50
2019-03-22T16:02:06.473Z,472.50
2019-03-22T16:03:44.157Z,466.88
2019-03-22T16:05:10.330Z,495.00
2019-03-22T16:06:42.688Z,483.75
2019-03-22T16:09:45.459Z,421.88
2019-03-22T16:11:17.444Z,461.25
2019-03-22T16:12:49.774Z,483.75
2019-03-22T16:14:20.714Z,472.50
2019-03-22T16:15:52.611Z,472.50
2019-03-22T16:17:25.692Z,523.13
2019-03-22T16:18:56.259Z,663.75
2019-03-22T16:20:28.097Z,551.25
2019-03-22T16:22:00.100Z,551.25
2019-03-22T16:23:31.809Z,495.00
2019-03-22T16:25:03.690Z,528.75
2019-03-22T16:26:35.258Z,607.50
2019-03-22T16:28:07.053Z,641.25
2019-03-22T16:29:40.550Z,810.00
2019-03-22T16:31:10.687Z,866.25
2019-03-22T16:32:44.045Z,810.00
2019-03-22T16:34:14.318Z,1220.63
2019-03-22T16:35:46.132Z,1496.25
2019-03-22T16:38:50.030Z,1265.63
2019-03-22T16:40:24.403Z,1164.38
2019-03-22T16:41:53.494Z,1203.75
2019-03-22T16:43:25.271Z,1012.50
2019-03-22T16:44:57.561Z,1035.00
2019-03-22T16:46:29.261Z,1074.38
2019-03-22T16:48:00.673Z,1001.25
2019-03-22T16:49:32.496Z,810.00
2019-03-22T16:51:05.546Z,1012.50
2019-03-22T16:52:36.135Z,1411.88
2019-03-22T16:55:39.880Z,860.63
2019-03-22T16:57:12.399Z,607.50
2019-03-22T16:58:43.706Z,573.75
2019-03-22T17:00:15.225Z,568.13
2019-03-22T17:01:47.176Z,630.00
2019-03-22T17:03:18.854Z,630.00
2019-03-22T17:04:50.671Z,691.88
2019-03-22T17:06:22.618Z,883.13
2019-03-22T17:07:54.641Z,956.25
2019-03-22T17:09:26.570Z,1215.00
2019-03-22T17:12:29.767Z,2340.00
2019-03-22T17:14:01.594Z,1586.25
2019-03-22T17:15:34.214Z,4381.88
2019-03-22T17:17:05.495Z,3555.00
2019-03-22T17:18:38.120Z,1687.50
2019-03-22T17:23:13.324Z,1282.50
2019-03-22T17:24:45.867Z,1760.63
2019-03-22T17:26:16.808Z,5056.88
2019-03-22T17:27:48.199Z,2801.25
2019-03-22T17:29:20.916Z,1496.25
2019-03-22T17:30:52.051Z,1653.75
2019-03-22T17:32:23.809Z,1490.63
2019-03-22T17:33:55.528Z,4241.25
2019-03-22T17:35:28.297Z,4449.38
2019-03-22T17:37:00.096Z,3195.00
2019-03-22T17:38:30.768Z,4072.50
2019-03-22T17:40:02.878Z,1935.00
2019-03-22T17:41:35.213Z,1833.75
2019-03-22T17:43:08.077Z,1670.63
2019-03-22T17:44:39.611Z,2908.13
2019-03-22T17:46:10.268Z,2677.50
2019-03-22T17:47:42.036Z,1473.75
2019-03-22T17:49:15.640Z,1490.63
2019-03-22T17:50:46.352Z,1451.25
2019-03-22T17:52:19.974Z,1282.50
2019-03-22T17:53:50.189Z,1248.75
2019-03-22T17:55:21.587Z,956.25
2019-03-22T17:56:52.629Z,821.25
2019-03-22T17:58:24.492Z,759.38
2019-03-22T17:59:56.530Z,714.38
2019-03-22T18:01:28.865Z,540.00
2019-03-22T18:03:00.639Z,489.38
2019-03-22T18:06:03.499Z,405.00
2019-03-22T18:07:36.044Z,354.38
2019-03-22T18:09:07.138Z,343.13
2019-03-22T18:10:39.066Z,365.63
2019-03-22T18:12:10.891Z,337.50
2019-03-22T18:13:42.656Z,365.63
2019-03-22T18:15:14.908Z,433.13
2019-03-22T18:16:47.338Z,466.88
2019-03-22T18:18:18.352Z,500.63
2019-03-22T18:19:50.056Z,472.50
2019-03-22T18:21:21.787Z,399.38
2019-03-22T18:22:53.496Z,388.13
2019-03-22T18:24:25.515Z,348.75
2019-03-22T18:25:57.208Z,360.00
2019-03-22T18:27:29.047Z,315.00
2019-03-22T18:29:00.876Z,309.38
2019-03-22T18:32:04.633Z,258.75
2019-03-22T18:33:36.265Z,230.63
2019-03-22T18:35:08.393Z,219.38
2019-03-22T18:36:40.069Z,236.25
2019-03-22T18:38:11.663Z,253.13
2019-03-22T18:39:43.511Z,253.13
2019-03-22T18:41:15.454Z,258.75
2019-03-22T18:42:47.234Z,241.88
2019-03-22T18:44:18.960Z,241.88
2019-03-22T18:45:51.210Z,225.00
2019-03-22T18:47:22.557Z,230.63
2019-03-22T18:48:54.472Z,213.75
2019-03-22T18:50:26.336Z,202.50
2019-03-22T18:51:58.064Z,225.00
2019-03-22T18:53:29.889Z,258.75
2019-03-22T18:55:01.874Z,337.50
2019-03-22T18:56:33.534Z,382.50
2019-03-22T18:58:05.365Z,433.13
2019-03-22T18:59:37.132Z,483.75
2019-03-22T19:01:09.052Z,495.00
2019-03-22T19:02:40.767Z,461.25
2019-03-22T19:04:12.679Z,444.38
2019-03-22T19:05:44.444Z,472.50
2019-03-22T19:07:16.234Z,466.88
2019-03-22T19:08:48.078Z,461.25
2019-03-22T19:10:19.947Z,427.50
2019-03-22T19:11:51.605Z,337.50
2019-03-22T19:13:30.685Z,298.13
2019-03-22T19:14:55.241Z,247.50
2019-03-22T19:16:27.255Z,219.38
2019-03-22T19:17:58.963Z,230.63
2019-03-22T19:19:30.686Z,241.88
2019-03-22T19:21:02.503Z,258.75
2019-03-22T19:22:34.317Z,275.63
2019-03-22T19:24:06.138Z,253.13
2019-03-22T19:25:38.065Z,253.13
2019-03-22T19:27:09.867Z,292.50
2019-03-22T19:28:41.579Z,241.88
2019-03-22T19:30:13.395Z,219.38
2019-03-22T19:31:45.211Z,230.63
2019-03-22T19:33:17.175Z,258.75
2019-03-22T19:34:54.349Z,320.63
2019-03-22T19:36:20.654Z,365.63
2019-03-22T19:37:52.884Z,382.50
2019-03-22T19:39:24.494Z,388.13
2019-03-22T19:40:56.101Z,416.25
2019-03-22T19:42:28.015Z,455.63
2019-03-22T19:43:59.785Z,455.63
2019-03-22T19:45:31.776Z,495.00
2019-03-22T19:47:03.364Z,618.75
2019-03-22T19:48:35.178Z,714.38
2019-03-22T19:50:07.094Z,787.50
2019-03-22T19:51:38.810Z,787.50
2019-03-22T19:53:10.779Z,720.00
2019-03-22T19:54:42.446Z,641.25
2019-03-22T19:56:14.258Z,596.25
2019-03-22T19:57:46.083Z,607.50
2019-03-22T19:59:18.009Z,663.75
2019-03-22T20:00:49.781Z,765.00
2019-03-22T20:02:21.523Z,708.75
2019-03-22T20:03:53.440Z,675.00